createdAt,value
2019-05-16T00:01:23.354Z,40.10
2019-05-16T00:03:53.012Z,40.20
2019-05-16T00:06:22.613Z,40.30
2019-05-16T00:08:52.454Z,40.30
2019-05-16T00:11:22.112Z,40.20
2019-05-16T00:13:51.786Z,40.00
2019-05-16T00:16:21.818Z,40.10
2019-05-16T00:18:51.575Z,40.10
2019-05-16T00:21:21.694Z,40.00
2019-05-16T00:23:51.663Z,40.10
2019-05-16T00:26:21.474Z,40.20
2019-05-16T00:29:18.480Z,40.30
2019-05-16T00:31:48.687Z,40.40
2019-05-16T00:34:31.982Z,40.50
2019-05-16T00:37:01.927Z,40.60
2019-05-16T00:39:32.057Z,40.70
2019-05-16T00:42:01.729Z,40.90
2019-05-16T00:44:31.550Z,41.00
2019-05-16T00:47:01.277Z,40.90
2019-05-16T00:49:31.049Z,40.90
2019-05-16T00:52:00.696Z,41.10
2019-05-16T00:54:30.511Z,41.20
2019-05-16T00:57:09.491Z,41.40
2019-05-16T00:59:39.442Z,41.50
2019-05-16T01:02:09.193Z,41.70
2019-05-16T01:04:39.086Z,41.70
2019-05-16T01:07:09.202Z,41.80
2019-05-16T01:09:38.932Z,42.10
2019-05-16T01:12:08.638Z,42.40
2019-05-16T01:14:38.569Z,42.30
2019-05-16T01:17:08.756Z,42.50
2019-05-16T01:19:39.631Z,42.50
2019-05-16T01:22:09.385Z,42.80
2019-05-16T01:24:41.572Z,42.60
2019-05-16T01:27:10.453Z,42.70
2019-05-16T01:29:40.278Z,42.70
2019-05-16T01:32:10.105Z,42.60
2019-05-16T01:34:39.696Z,42.70
2019-05-16T01:37:09.543Z,42.60
2019-05-16T01:39:39.374Z,42.40
2019-05-16T01:42:09.237Z,42.10
2019-05-16T01:44:40.043Z,41.90
2019-05-16T01:47:10.771Z,41.80
2019-05-16T01:49:40.540Z,41.80
2019-05-16T01:52:10.755Z,41.70
2019-05-16T01:54:43.425Z,41.70
2019-05-16T01:57:13.290Z,41.70
2019-05-16T01:59:43.103Z,41.70
2019-05-16T02:02:12.907Z,41.70
2019-05-16T02:04:42.755Z,41.70
2019-05-16T02:07:12.485Z,41.80
2019-05-16T02:12:54.558Z,42.00
2019-05-16T02:15:24.396Z,42.00
2019-05-16T02:17:54.157Z,42.20
2019-05-16T02:20:23.876Z,42.30
2019-05-16T02:22:53.725Z,42.40
2019-05-16T02:25:23.630Z,42.40
2019-05-16T02:27:53.311Z,42.50
2019-05-16T02:30:22.958Z,42.50
2019-05-16T02:32:53.010Z,42.50
2019-05-16T02:35:22.960Z,42.60
2019-05-16T02:37:55.326Z,42.60
2019-05-16T02:40:24.048Z,42.70
2019-05-16T02:42:56.156Z,42.80
2019-05-16T02:45:25.714Z,42.80
2019-05-16T02:47:55.496Z,42.80
2019-05-16T02:50:25.237Z,42.80
2019-05-16T02:52:55.039Z,42.90
2019-05-16T02:55:24.843Z,42.80
2019-05-16T02:57:54.547Z,42.80
2019-05-16T03:00:35.394Z,42.80
2019-05-16T03:03:06.073Z,42.70
2019-05-16T03:05:35.655Z,42.70
2019-05-16T03:08:06.797Z,42.70
2019-05-16T03:10:36.405Z,42.70
2019-05-16T03:13:06.397Z,42.60
2019-05-16T03:15:36.176Z,42.40
2019-05-16T03:18:05.777Z,42.30
2019-05-16T03:20:35.690Z,42.20
2019-05-16T03:23:05.767Z,42.20
2019-05-16T03:26:01.273Z,42.10
2019-05-16T03:28:31.184Z,42.00
2019-05-16T03:31:05.110Z,41.90
2019-05-16T03:33:41.061Z,41.90
2019-05-16T03:36:05.453Z,41.90
2019-05-16T03:38:35.378Z,41.70
2019-05-16T03:41:33.090Z,41.60
2019-05-16T03:44:01.328Z,41.50
2019-05-16T03:46:30.996Z,41.50
2019-05-16T03:49:02.412Z,41.40
2019-05-16T03:51:32.194Z,41.40
2019-05-16T03:54:02.870Z,41.20
2019-05-16T03:56:33.189Z,41.10
2019-05-16T03:59:03.136Z,41.00
2019-05-16T04:01:33.075Z,41.00
2019-05-16T04:04:02.728Z,41.00
2019-05-16T04:06:32.393Z,41.10
2019-05-16T04:09:02.259Z,41.00
2019-05-16T04:11:33.094Z,41.10
2019-05-16T04:14:03.255Z,41.20
2019-05-16T04:16:33.287Z,41.30
2019-05-16T04:19:03.119Z,41.30
2019-05-16T04:21:42.932Z,41.30
2019-05-16T04:24:12.782Z,41.30
2019-05-16T04:26:42.536Z,41.30
2019-05-16T04:29:12.368Z,41.40
2019-05-16T04:31:41.952Z,41.50
2019-05-16T04:34:12.794Z,41.50
2019-05-16T04:36:42.396Z,41.50
2019-05-16T04:39:12.281Z,41.40
2019-05-16T04:41:42.119Z,41.60
2019-05-16T04:44:12.069Z,41.70
2019-05-16T04:46:41.811Z,41.70
2019-05-16T04:49:11.560Z,41.80
2019-05-16T04:51:42.377Z,41.80
2019-05-16T04:54:12.292Z,41.90
2019-05-16T04:56:42.091Z,41.90
2019-05-16T04:59:16.224Z,42.10
2019-05-16T05:01:44.400Z,42.20
2019-05-16T05:04:15.442Z,42.30
2019-05-16T05:06:45.480Z,42.10
2019-05-16T05:09:15.230Z,42.00
2019-05-16T05:11:45.174Z,42.00
2019-05-16T05:14:14.806Z,42.00
2019-05-16T05:16:44.610Z,42.00
2019-05-16T05:19:14.322Z,42.00
2019-05-16T05:21:44.155Z,42.00
2019-05-16T05:24:14.133Z,42.10
2019-05-16T05:26:44.026Z,42.30
2019-05-16T05:29:14.010Z,42.40
2019-05-16T05:31:45.457Z,42.60
2019-05-16T05:34:15.467Z,42.80
2019-05-16T05:36:45.247Z,42.70
2019-05-16T05:39:15.707Z,42.90
2019-05-16T05:41:45.798Z,43.10
2019-05-16T05:44:16.519Z,43.40
2019-05-16T05:46:46.150Z,43.70
2019-05-16T05:49:15.845Z,43.90
2019-05-16T05:51:46.625Z,44.00
2019-05-16T05:54:16.534Z,44.20
2019-05-16T05:56:51.984Z,44.40
2019-05-16T05:59:21.666Z,44.40
2019-05-16T06:01:51.954Z,44.70
2019-05-16T06:04:21.757Z,44.70
2019-05-16T06:06:51.456Z,44.90
2019-05-16T06:09:28.866Z,45.10
2019-05-16T06:11:52.659Z,45.10
2019-05-16T06:14:22.741Z,45.00
2019-05-16T06:16:53.251Z,45.00
2019-05-16T06:19:23.220Z,44.80
2019-05-16T06:21:53.114Z,44.70
2019-05-16T06:24:22.873Z,44.70
2019-05-16T06:26:52.816Z,44.70
2019-05-16T06:29:22.734Z,44.70
2019-05-16T06:31:52.945Z,44.80
2019-05-16T06:34:22.966Z,44.80
2019-05-16T06:36:52.779Z,44.60
2019-05-16T06:39:22.436Z,44.80
2019-05-16T06:41:52.295Z,44.70
2019-05-16T06:44:22.089Z,44.60
2019-05-16T06:47:08.809Z,44.60
2019-05-16T06:49:23.375Z,44.60
2019-05-16T06:51:56.735Z,44.60
2019-05-16T06:54:26.343Z,44.70
2019-05-16T06:56:57.089Z,44.60
2019-05-16T06:59:29.644Z,44.60
2019-05-16T07:02:00.399Z,44.50
2019-05-16T07:04:31.522Z,44.40
2019-05-16T07:07:03.119Z,44.40
2019-05-16T07:09:32.722Z,44.50
2019-05-16T07:12:02.475Z,44.60
2019-05-16T07:14:32.206Z,44.80
2019-05-16T07:17:02.130Z,45.10
2019-05-16T07:19:31.985Z,45.10
2019-05-16T07:22:01.632Z,45.20
2019-05-16T07:24:31.323Z,45.30
2019-05-16T07:27:00.977Z,45.30
2019-05-16T07:29:31.007Z,45.30
2019-05-16T07:32:00.834Z,45.30
2019-05-16T07:34:31.181Z,45.20
2019-05-16T07:37:01.023Z,45.20
2019-05-16T07:39:30.854Z,45.30
2019-05-16T07:42:00.744Z,45.40
2019-05-16T07:44:31.122Z,45.40
2019-05-16T07:47:01.187Z,45.60
2019-05-16T07:49:31.119Z,45.60
2019-05-16T07:52:00.851Z,45.80
2019-05-16T07:54:34.400Z,45.80
2019-05-16T07:57:18.562Z,45.60
2019-05-16T07:59:33.325Z,45.30
2019-05-16T08:02:02.927Z,45.20
2019-05-16T08:04:32.618Z,45.40
2019-05-16T08:07:05.618Z,45.20
2019-05-16T08:09:33.730Z,44.60
2019-05-16T08:12:05.935Z,44.40
2019-05-16T08:14:35.269Z,44.20
2019-05-16T08:17:05.198Z,44.00
2019-05-16T08:19:34.865Z,44.50
2019-05-16T08:22:05.610Z,43.90
2019-05-16T08:24:36.387Z,43.80
2019-05-16T08:27:06.368Z,43.80
2019-05-16T08:29:36.184Z,43.80
2019-05-16T08:32:05.969Z,43.70
2019-05-16T08:34:35.605Z,43.70
2019-05-16T08:37:05.307Z,43.50
2019-05-16T08:39:35.248Z,43.60
2019-05-16T08:44:36.463Z,43.80
2019-05-16T08:47:06.610Z,43.80
2019-05-16T08:49:36.405Z,43.90
2019-05-16T08:52:06.094Z,44.10
2019-05-16T08:54:35.718Z,44.30
2019-05-16T08:57:24.369Z,44.50
2019-05-16T08:59:36.996Z,44.60
2019-05-16T09:02:06.622Z,44.60
2019-05-16T09:04:36.394Z,44.60
2019-05-16T09:07:06.076Z,44.50
2019-05-16T09:09:44.138Z,45.30
2019-05-16T09:10:11.185Z,43.70
2019-05-16T09:12:07.902Z,44.70
2019-05-16T09:14:39.080Z,44.60
2019-05-16T09:17:10.030Z,44.70
2019-05-16T09:19:40.551Z,44.60
2019-05-16T09:22:10.336Z,44.70
2019-05-16T09:24:40.422Z,44.70
2019-05-16T09:27:13.398Z,44.50
2019-05-16T09:29:41.818Z,44.50
2019-05-16T09:32:17.102Z,44.40
2019-05-16T09:34:42.644Z,44.40
2019-05-16T09:37:12.318Z,44.60
2019-05-16T09:39:42.243Z,44.80
2019-05-16T09:42:12.099Z,45.10
2019-05-16T09:44:42.047Z,45.20
2019-05-16T09:47:11.710Z,45.30
2019-05-16T09:49:41.299Z,45.40
2019-05-16T09:52:10.906Z,45.40
2019-05-16T09:54:40.725Z,45.30
2019-05-16T09:57:10.662Z,45.10
2019-05-16T09:59:40.379Z,45.30
2019-05-16T10:02:10.171Z,45.30
2019-05-16T10:04:40.121Z,45.00
2019-05-16T10:07:10.106Z,45.00
2019-05-16T10:09:44.894Z,45.00
2019-05-16T10:12:15.250Z,44.80
2019-05-16T10:14:42.484Z,44.80
2019-05-16T10:17:12.086Z,44.70
2019-05-16T10:19:42.190Z,45.00
2019-05-16T10:22:11.794Z,44.70
2019-05-16T10:24:41.465Z,44.60
2019-05-16T10:27:11.174Z,44.60
2019-05-16T10:29:40.743Z,44.70
2019-05-16T10:32:10.621Z,44.80
2019-05-16T10:34:40.458Z,45.10
2019-05-16T10:37:10.212Z,44.50
2019-05-16T10:39:39.798Z,43.90
2019-05-16T10:42:23.780Z,44.40
2019-05-16T10:44:40.875Z,44.30
2019-05-16T10:47:10.935Z,44.50
2019-05-16T10:49:41.803Z,44.40
2019-05-16T10:52:12.062Z,44.40
2019-05-16T10:54:54.200Z,44.10
2019-05-16T10:57:13.624Z,44.00
2019-05-16T11:00:09.129Z,44.00
2019-05-16T11:02:16.726Z,44.00
2019-05-16T11:04:57.308Z,44.10
2019-05-16T11:07:17.282Z,43.90
2019-05-16T11:09:55.821Z,44.00
2019-05-16T11:12:20.443Z,44.00
2019-05-16T11:14:51.140Z,43.90
2019-05-16T11:17:20.834Z,43.90
2019-05-16T11:19:50.935Z,44.10
2019-05-16T11:22:20.743Z,44.20
2019-05-16T11:24:50.743Z,43.80
2019-05-16T11:27:20.553Z,43.40
2019-05-16T11:29:51.136Z,43.10
2019-05-16T11:32:21.764Z,43.00
2019-05-16T11:34:51.439Z,43.90
2019-05-16T11:37:21.442Z,43.30
2019-05-16T11:39:51.198Z,43.50
2019-05-16T11:42:20.930Z,43.60
2019-05-16T11:44:51.426Z,43.60
2019-05-16T11:47:21.143Z,43.60
2019-05-16T11:49:50.989Z,43.50
2019-05-16T11:52:20.730Z,44.30
2019-05-16T11:54:50.372Z,44.00
2019-05-16T11:57:19.942Z,44.20
2019-05-16T11:59:49.676Z,44.30
2019-05-16T12:02:19.380Z,44.40
2019-05-16T12:04:49.292Z,44.30
2019-05-16T12:07:19.432Z,44.00
2019-05-16T12:09:55.264Z,44.00
2019-05-16T12:12:21.104Z,44.50
2019-05-16T12:14:51.120Z,43.80
2019-05-16T12:17:20.988Z,43.80
2019-05-16T12:19:52.841Z,43.90
2019-05-16T12:22:22.102Z,43.90
2019-05-16T12:24:52.309Z,44.10
2019-05-16T12:27:21.990Z,44.10
2019-05-16T12:29:55.518Z,43.70
2019-05-16T12:32:23.203Z,43.60
2019-05-16T12:34:53.130Z,43.60
2019-05-16T12:37:23.168Z,43.80
2019-05-16T12:39:52.955Z,43.80
2019-05-16T12:42:22.619Z,43.70
2019-05-16T12:44:52.274Z,43.70
2019-05-16T12:47:21.997Z,43.50
2019-05-16T12:49:51.858Z,43.40
2019-05-16T12:52:22.478Z,43.30
2019-05-16T12:54:52.305Z,43.20
2019-05-16T12:57:30.177Z,43.10
2019-05-16T12:59:53.586Z,42.80
2019-05-16T13:02:23.154Z,42.70
2019-05-16T13:04:52.854Z,42.60
2019-05-16T13:07:22.536Z,42.70
2019-05-16T13:09:52.385Z,42.70
2019-05-16T13:12:22.110Z,42.50
2019-05-16T13:14:51.805Z,42.50
2019-05-16T13:17:21.529Z,42.30
2019-05-16T13:19:51.379Z,42.40
2019-05-16T13:22:21.302Z,42.50
2019-05-16T13:24:51.097Z,42.60
2019-05-16T13:27:23.178Z,42.80
2019-05-16T13:29:52.315Z,43.00
2019-05-16T13:32:22.108Z,43.00
2019-05-16T13:34:52.024Z,43.10
2019-05-16T13:37:21.886Z,43.10
2019-05-16T13:39:51.803Z,43.30
2019-05-16T13:42:21.879Z,43.20
2019-05-16T13:44:51.630Z,43.10
2019-05-16T13:47:21.441Z,43.10
2019-05-16T13:49:51.239Z,43.10
2019-05-16T13:52:20.907Z,43.20
2019-05-16T13:54:50.512Z,43.10
2019-05-16T13:57:20.890Z,42.90
2019-05-16T13:59:50.562Z,42.60
2019-05-16T14:02:26.572Z,42.60
2019-05-16T14:04:56.867Z,42.70
2019-05-16T14:07:27.879Z,42.90
2019-05-16T14:09:58.058Z,42.90
2019-05-16T14:12:27.966Z,42.80
2019-05-16T14:14:58.343Z,42.90
2019-05-16T14:17:28.075Z,43.10
2019-05-16T14:19:57.754Z,43.60
2019-05-16T14:22:27.872Z,43.10
2019-05-16T14:24:57.868Z,43.20
2019-05-16T14:27:27.790Z,43.10
2019-05-16T14:29:57.880Z,43.20
2019-05-16T14:32:27.781Z,43.00
2019-05-16T14:34:58.899Z,42.90
2019-05-16T14:37:28.979Z,42.90
2019-05-16T14:40:01.413Z,43.00
2019-05-16T14:42:30.473Z,43.00
2019-05-16T14:45:10.782Z,42.80
2019-05-16T14:47:31.568Z,42.50
2019-05-16T14:50:01.275Z,42.60
2019-05-16T14:52:32.741Z,42.80
2019-05-16T14:55:02.785Z,42.90
2019-05-16T14:57:32.526Z,43.00
2019-05-16T15:00:02.178Z,43.10
2019-05-16T15:02:33.332Z,43.30
2019-05-16T15:05:03.169Z,43.30
2019-05-16T15:07:32.882Z,43.30
2019-05-16T15:10:02.506Z,43.30
2019-05-16T15:12:32.471Z,43.30
2019-05-16T15:15:16.086Z,43.30
2019-05-16T15:17:34.657Z,43.20
2019-05-16T15:20:06.697Z,43.20
2019-05-16T15:22:38.403Z,43.30
2019-05-16T15:25:08.278Z,43.50
2019-05-16T15:27:39.146Z,43.70
2019-05-16T15:30:09.071Z,43.80
2019-05-16T15:32:38.930Z,43.90
2019-05-16T15:35:08.748Z,43.90
2019-05-16T15:37:38.580Z,44.00
2019-05-16T15:40:08.442Z,43.90
2019-05-16T15:42:38.205Z,43.90
2019-05-16T15:45:07.788Z,43.90
2019-05-16T15:47:37.793Z,43.80
2019-05-16T15:50:08.090Z,43.90
2019-05-16T15:52:38.491Z,43.90
2019-05-16T15:55:10.109Z,44.00
2019-05-16T15:57:39.900Z,43.90
2019-05-16T16:00:10.772Z,44.00
2019-05-16T16:02:40.935Z,44.00
2019-05-16T16:05:10.794Z,44.00
2019-05-16T16:07:40.763Z,44.10
2019-05-16T16:10:10.831Z,44.10
2019-05-16T16:12:40.896Z,44.20
2019-05-16T16:15:19.507Z,44.20
2019-05-16T16:17:49.070Z,44.40
2019-05-16T16:20:19.047Z,44.60
2019-05-16T16:22:49.337Z,44.50
2019-05-16T16:25:19.071Z,44.60
2019-05-16T16:27:48.891Z,44.80
2019-05-16T16:30:18.877Z,45.10
2019-05-16T16:32:48.575Z,45.20
2019-05-16T16:35:18.266Z,45.30
2019-05-16T16:37:49.412Z,45.40
2019-05-16T16:40:19.336Z,45.70
2019-05-16T16:42:49.202Z,45.80
2019-05-16T16:45:19.054Z,46.00
2019-05-16T16:47:48.632Z,46.00
2019-05-16T16:50:19.707Z,46.20
2019-05-16T16:52:49.617Z,46.40
2019-05-16T16:55:19.144Z,46.30
2019-05-16T16:57:49.180Z,46.50
2019-05-16T17:00:18.854Z,46.60
2019-05-16T17:03:01.705Z,46.90
2019-05-16T17:05:19.936Z,46.80
2019-05-16T17:07:49.492Z,46.70
2019-05-16T17:10:20.452Z,46.80
2019-05-16T17:12:50.396Z,46.80
2019-05-16T17:15:20.603Z,46.80
2019-05-16T17:17:50.134Z,46.90
2019-05-16T17:20:19.777Z,47.20
2019-05-16T17:22:49.586Z,47.30
2019-05-16T17:25:19.234Z,47.40
2019-05-16T17:27:49.165Z,47.40
2019-05-16T17:30:19.139Z,47.50
2019-05-16T17:32:48.720Z,47.50
2019-05-16T17:35:19.062Z,47.50
2019-05-16T17:37:48.854Z,47.30
2019-05-16T17:40:18.421Z,47.20
2019-05-16T17:42:48.196Z,47.10
2019-05-16T17:45:18.784Z,47.30
2019-05-16T17:47:48.574Z,47.30
2019-05-16T17:50:18.328Z,47.40
2019-05-16T17:52:47.994Z,47.40
2019-05-16T17:55:18.304Z,47.50
2019-05-16T17:57:48.211Z,47.50
2019-05-16T18:00:25.336Z,47.40
2019-05-16T18:02:50.495Z,47.50
2019-05-16T18:05:20.210Z,47.30
2019-05-16T18:07:49.830Z,47.50
2019-05-16T18:10:19.593Z,47.60
2019-05-16T18:12:49.219Z,47.70
2019-05-16T18:15:20.473Z,47.80
2019-05-16T18:17:50.037Z,48.00
2019-05-16T18:20:22.301Z,48.00
2019-05-16T18:22:51.109Z,48.10
2019-05-16T18:25:20.786Z,48.20
2019-05-16T18:27:50.336Z,48.20
2019-05-16T18:30:23.374Z,48.20
2019-05-16T18:32:53.663Z,48.10
2019-05-16T18:35:23.482Z,48.30
2019-05-16T18:37:53.390Z,48.40
2019-05-16T18:40:23.406Z,48.30
2019-05-16T18:42:53.045Z,48.40
2019-05-16T18:45:23.762Z,48.40
2019-05-16T18:47:56.154Z,48.40
2019-05-16T18:50:26.582Z,48.30
2019-05-16T18:52:57.091Z,48.30
2019-05-16T18:55:27.051Z,48.40
2019-05-16T18:57:57.583Z,48.30
2019-05-16T19:00:27.460Z,48.40
2019-05-16T19:02:59.384Z,48.40
2019-05-16T19:05:28.502Z,48.40
2019-05-16T19:07:58.471Z,48.90
2019-05-16T19:10:28.009Z,48.30
2019-05-16T19:12:59.779Z,48.40
2019-05-16T19:15:28.965Z,48.30
2019-05-16T19:17:58.822Z,48.30
2019-05-16T19:20:28.872Z,48.40
2019-05-16T19:22:59.068Z,48.40
2019-05-16T19:25:30.150Z,48.40
2019-05-16T19:28:00.254Z,48.40
2019-05-16T19:30:30.130Z,48.50
2019-05-16T19:32:59.798Z,48.50
2019-05-16T19:35:30.786Z,48.50
2019-05-16T19:38:00.409Z,48.50
2019-05-16T19:40:30.022Z,48.60
2019-05-16T19:42:59.717Z,48.70
2019-05-16T19:45:29.353Z,48.70
2019-05-16T19:47:59.034Z,48.70
2019-05-16T19:50:28.649Z,48.70
2019-05-16T19:52:58.686Z,48.70
2019-05-16T19:55:28.336Z,48.80
2019-05-16T19:57:58.077Z,48.80
2019-05-16T20:00:27.692Z,48.70
2019-05-16T20:02:57.298Z,48.80
2019-05-16T20:05:27.082Z,48.90
2019-05-16T20:07:56.606Z,48.90
2019-05-16T20:10:27.085Z,48.90
2019-05-16T20:12:57.043Z,49.00
2019-05-16T20:15:27.091Z,49.10
2019-05-16T20:17:58.613Z,49.00
2019-05-16T20:20:28.505Z,49.10
2019-05-16T20:22:58.223Z,49.10
2019-05-16T20:25:27.895Z,49.00
2019-05-16T20:27:57.539Z,49.00
2019-05-16T20:30:27.251Z,49.00
2019-05-16T20:32:57.025Z,49.60
2019-05-16T20:35:26.768Z,49.00
2019-05-16T20:37:57.689Z,49.00
2019-05-16T20:40:27.422Z,49.00
2019-05-16T20:42:59.461Z,49.00
2019-05-16T20:45:29.224Z,49.00
2019-05-16T20:48:10.996Z,49.10
2019-05-16T20:50:30.630Z,49.10
2019-05-16T20:53:00.404Z,49.10
2019-05-16T20:55:30.058Z,49.20
2019-05-16T20:58:00.223Z,49.10
2019-05-16T21:00:30.501Z,49.10
2019-05-16T21:03:00.529Z,49.20
2019-05-16T21:05:30.251Z,49.20
2019-05-16T21:07:59.920Z,49.30
2019-05-16T21:10:30.278Z,49.40
2019-05-16T21:13:03.362Z,49.40
2019-05-16T21:15:32.957Z,49.40
2019-05-16T21:18:02.667Z,49.40
2019-05-16T21:20:32.418Z,49.40
2019-05-16T21:23:02.009Z,49.50
2019-05-16T21:25:31.543Z,49.50
2019-05-16T21:28:01.173Z,49.50
2019-05-16T21:30:30.818Z,50.10
2019-05-16T21:33:01.027Z,49.50
2019-05-16T21:35:30.573Z,49.40
2019-05-16T21:38:00.470Z,49.50
2019-05-16T21:40:31.366Z,49.50
2019-05-16T21:43:01.150Z,49.70
2019-05-16T21:45:31.202Z,49.50
2019-05-16T21:48:01.662Z,49.60
2019-05-16T21:50:31.433Z,49.60
2019-05-16T21:53:01.349Z,49.60
2019-05-16T21:55:31.161Z,49.70
2019-05-16T21:58:00.893Z,49.70
2019-05-16T22:00:37.529Z,49.90
2019-05-16T22:03:09.022Z,49.90
2019-05-16T22:05:38.898Z,49.80
2019-05-16T22:08:11.353Z,49.90
2019-05-16T22:10:40.173Z,50.00
2019-05-16T22:13:11.423Z,50.00
2019-05-16T22:15:41.054Z,50.00
2019-05-16T22:18:12.361Z,50.00
2019-05-16T22:20:42.694Z,50.00
2019-05-16T22:23:12.511Z,49.90
2019-05-16T22:25:42.150Z,50.10
2019-05-16T22:28:11.784Z,50.20
2019-05-16T22:30:41.571Z,50.20
2019-05-16T22:33:11.114Z,50.20
2019-05-16T22:35:40.714Z,50.20
2019-05-16T22:38:10.578Z,50.20
2019-05-16T22:40:40.394Z,50.20
2019-05-16T22:43:10.564Z,50.20
2019-05-16T22:45:40.636Z,50.30
2019-05-16T22:48:10.214Z,50.20
2019-05-16T22:50:40.115Z,50.20
2019-05-16T22:53:09.738Z,50.20
2019-05-16T22:55:39.363Z,50.30
2019-05-16T22:58:08.968Z,50.20
2019-05-16T23:00:41.290Z,50.20
2019-05-16T23:03:10.050Z,50.20
2019-05-16T23:05:39.641Z,50.30
2019-05-16T23:08:11.307Z,50.40
2019-05-16T23:10:41.298Z,50.40
2019-05-16T23:13:11.416Z,50.30
2019-05-16T23:15:41.079Z,50.50
2019-05-16T23:18:10.633Z,50.50
2019-05-16T23:20:40.538Z,50.50
2019-05-16T23:23:10.254Z,50.70
2019-05-16T23:25:40.738Z,50.70
2019-05-16T23:28:10.808Z,50.60
2019-05-16T23:30:40.521Z,50.70
2019-05-16T23:33:10.287Z,50.70
2019-05-16T23:35:40.202Z,50.70
2019-05-16T23:38:19.504Z,50.80
2019-05-16T23:40:41.436Z,50.70
2019-05-16T23:43:11.004Z,50.80
2019-05-16T23:45:40.862Z,50.80
2019-05-16T23:48:11.332Z,50.90
2019-05-16T23:50:41.211Z,51.00
2019-05-16T23:53:10.867Z,51.00
2019-05-16T23:55:40.464Z,51.00
2019-05-16T23:58:10.123Z,51.10
